Terminal Aerodrome Forecast
Issued by NWS Northern Indiana

Home | Current Version | Previous Version | Text Only | Print | Product List | Glossary Off
Versions: 1 2 3 4 5 6 7 8 9 10 11 12

615
FTUS43 KIWX 131720
TAFFWA
TAF
KFWA 131720Z 1318/1418 19003KT P6SM BKN040
     FM141100 15004KT P6SM BKN100=

USA.gov is the U.S. government's official web portal to all federal, state and local government web resources and services.